Terminal Aerodrome Forecast
Issued by NWS

Home | Current Version | Previous Version | Text Only | Print | Product List | Glossary On
Versions: 1 2 3 4 5 6 7 8 9 10 11 12 13 14
000
FTUS45 KREV 222300
TAFMMH
TAF
KMMH 222339Z 2300/2324 11008KT P6SM FEW030 SCT180
     FM230300 30007KT P6SM SCT180
     FM231600 12008KT P6SM SCT180
     FM232200 26012KT P6SM SCT180
      AMD NOT SKED 2302/2314=

USA.gov is the U.S. government's official web portal to all federal, state and local government web resources and services.